Time;durP1;ratioP1;P1;durP2;ratioP2;P2;SDS_P1;SDS_P2;PMS_P1;PMS_P2;Temp;Humidity;BMP_temperature;BMP_pressure;BME280_temperature;BME280_humidity;BME280_pressure;Samples;Min_cycle;Max_cycle;Signal;HPM_P1;HPM_P2
2022/07/23 00:00:18;;;;;;;3.75;3.45;;;;;;;;;;5053583;28;20053;-86
2022/07/23 00:02:45;;;;;;;5.90;3.40;;;;;;;;;;5053084;28;20076;-86
2022/07/23 00:05:12;;;;;;;3.42;3.05;;;;;;;;;;5055153;28;20438;-85
2022/07/23 00:07:40;;;;;;;4.40;3.63;;;;;;;;;;5053243;28;20067;-85
2022/07/23 00:10:07;;;;;;;3.90;3.55;;;;;;;;;;5053331;28;20045;-86
2022/07/23 00:12:34;;;;;;;3.97;3.65;;;;;;;;;;5053224;28;20084;-85
2022/07/23 00:15:02;;;;;;;5.18;3.80;;;;;;;;;;5052403;28;20463;-85
2022/07/23 00:17:29;;;;;;;4.30;4.00;;;;;;;;;;5052862;28;20415;-85
2022/07/23 00:19:56;;;;;;;4.40;3.95;;;;;;;;;;5052723;28;20048;-85
2022/07/23 00:22:25;;;;;;;4.65;3.58;;;;;;;;;;5052681;28;20130;-85
2022/07/23 00:24:52;;;;;;;4.43;4.00;;;;;;;;;;5052667;28;20075;-85
2022/07/23 00:27:39;;;;;;;4.22;3.15;;;;;;;;;;5052526;28;20131;-85
2022/07/23 00:30:06;;;;;;;4.00;3.70;;;;;;;;;;5052662;28;20045;-86
2022/07/23 00:32:45;;;;;;;5.15;3.63;;;;;;;;;;5052720;28;20044;-86
2022/07/23 00:35:22;;;;;;;3.90;3.58;;;;;;;;;;5052791;28;20468;-86
2022/07/23 00:37:50;;;;;;;5.57;3.03;;;;;;;;;;5053460;28;20110;-86
2022/07/23 00:40:17;;;;;;;5.68;3.35;;;;;;;;;;5052506;28;20084;-85
2022/07/23 00:42:44;;;;;;;5.57;3.20;;;;;;;;;;5052270;28;20485;-85
2022/07/23 00:45:11;;;;;;;4.10;3.80;;;;;;;;;;5052447;28;20075;-86
2022/07/23 00:47:38;;;;;;;3.55;3.25;;;;;;;;;;5052226;28;20076;-86
2022/07/23 00:50:07;;;;;;;4.30;3.95;;;;;;;;;;5052398;28;20510;-85
2022/07/23 00:52:35;;;;;;;4.38;3.95;;;;;;;;;;5052183;28;20467;-85
2022/07/23 00:55:03;;;;;;;4.45;3.60;;;;;;;;;;5052241;28;20415;-85
2022/07/23 00:57:30;;;;;;;3.90;3.60;;;;;;;;;;5052103;28;20084;-86
2022/07/23 00:59:57;;;;;;;5.28;3.63;;;;;;;;;;5052285;28;20049;-86
2022/07/23 01:02:26;;;;;;;5.85;3.90;;;;;;;;;;5051899;28;20055;-85
2022/07/23 01:04:54;;;;;;;3.60;3.30;;;;;;;;;;5052133;28;20059;-86
2022/07/23 01:07:22;;;;;;;3.83;3.42;;;;;;;;;;5051746;28;20136;-86
2022/07/23 01:09:49;;;;;;;3.67;3.47;;;;;;;;;;5051877;28;20087;-85
2022/07/23 01:12:16;;;;;;;4.47;3.70;;;;;;;;;;5052004;28;20056;-85
2022/07/23 01:14:43;;;;;;;4.25;3.95;;;;;;;;;;5051886;28;20056;-85
2022/07/23 01:17:11;;;;;;;3.63;3.42;;;;;;;;;;5053052;28;20411;-85
2022/07/23 01:19:38;;;;;;;3.95;3.60;;;;;;;;;;5052035;28;20108;-86
2022/07/23 01:22:05;;;;;;;4.00;3.65;;;;;;;;;;5051614;28;20045;-85
2022/07/23 01:24:32;;;;;;;4.72;3.60;;;;;;;;;;5051722;28;20048;-85
2022/07/23 01:26:59;;;;;;;6.72;3.90;;;;;;;;;;5051614;28;20057;-85
2022/07/23 01:29:26;;;;;;;4.15;3.72;;;;;;;;;;5051852;28;20045;-85
2022/07/23 01:31:54;;;;;;;5.82;3.83;;;;;;;;;;5051547;28;20091;-85
2022/07/23 01:34:21;;;;;;;4.78;3.88;;;;;;;;;;5052861;28;20418;-84
2022/07/23 01:36:48;;;;;;;3.50;3.30;;;;;;;;;;5051460;28;20045;-85
2022/07/23 01:39:15;;;;;;;3.60;3.50;;;;;;;;;;5052899;28;20049;-86
2022/07/23 01:41:43;;;;;;;4.22;3.92;;;;;;;;;;5051436;28;20053;-84
2022/07/23 01:44:16;;;;;;;3.55;3.35;;;;;;;;;;5051774;28;20418;-85
2022/07/23 01:46:43;;;;;;;4.38;3.33;;;;;;;;;;5052666;28;20094;-85
2022/07/23 01:49:10;;;;;;;4.70;4.00;;;;;;;;;;5051460;28;20482;-85
2022/07/23 01:51:59;;;;;;;4.32;3.92;;;;;;;;;;5051511;28;20418;-85
2022/07/23 01:54:25;;;;;;;3.95;3.65;;;;;;;;;;5052465;28;20049;-86
2022/07/23 01:56:52;;;;;;;4.28;3.92;;;;;;;;;;5051201;28;20064;-86
2022/07/23 01:59:19;;;;;;;4.15;3.85;;;;;;;;;;5052482;28;20499;-86
2022/07/23 02:01:46;;;;;;;5.53;4.00;;;;;;;;;;5051049;28;20080;-86
2022/07/23 02:04:13;;;;;;;4.28;3.85;;;;;;;;;;5051314;28;20465;-86
2022/07/23 02:06:40;;;;;;;3.83;3.53;;;;;;;;;;5050888;28;20045;-86
2022/07/23 02:09:07;;;;;;;5.75;3.70;;;;;;;;;;5051033;28;20495;-86
2022/07/23 02:11:35;;;;;;;4.65;3.90;;;;;;;;;;5050953;28;20049;-86
2022/07/23 02:14:02;;;;;;;4.22;3.92;;;;;;;;;;5051084;28;20049;-85
2022/07/23 02:16:29;;;;;;;7.38;3.78;;;;;;;;;;5050978;28;20106;-86
2022/07/23 02:18:57;;;;;;;4.88;4.38;;;;;;;;;;5051228;28;20136;-86
2022/07/23 02:21:24;;;;;;;6.07;3.90;;;;;;;;;;5050976;28;20079;-86
2022/07/23 02:23:51;;;;;;;4.93;3.92;;;;;;;;;;5050757;28;20524;-85
2022/07/23 02:26:19;;;;;;;5.22;4.43;;;;;;;;;;5050785;28;20057;-86
2022/07/23 02:28:47;;;;;;;4.10;3.80;;;;;;;;;;5051924;28;20049;-86
2022/07/23 02:31:14;;;;;;;7.70;4.60;;;;;;;;;;5051003;28;20045;-86
2022/07/23 02:33:41;;;;;;;4.57;4.28;;;;;;;;;;5050722;28;20049;-86
2022/07/23 02:36:08;;;;;;;4.35;3.95;;;;;;;;;;5050891;28;20135;-85
2022/07/23 02:38:36;;;;;;;4.57;4.28;;;;;;;;;;5054454;28;20082;-85
2022/07/23 02:41:03;;;;;;;4.25;3.85;;;;;;;;;;5054454;28;20053;-85
2022/07/23 02:43:30;;;;;;;4.47;4.10;;;;;;;;;;5054234;28;20498;-86
2022/07/23 02:45:57;;;;;;;4.70;4.32;;;;;;;;;;5054592;28;20064;-85
2022/07/23 02:48:24;;;;;;;3.80;3.60;;;;;;;;;;5054375;28;20081;-86
2022/07/23 02:50:52;;;;;;;5.57;4.28;;;;;;;;;;5054186;28;20124;-85
2022/07/23 02:53:19;;;;;;;5.70;3.80;;;;;;;;;;5054302;28;20452;-85
2022/07/23 02:55:46;;;;;;;4.22;3.92;;;;;;;;;;5053882;28;20068;-85
2022/07/23 02:58:13;;;;;;;5.13;4.72;;;;;;;;;;5054367;28;20053;-86
2022/07/23 03:00:40;;;;;;;4.65;4.35;;;;;;;;;;5054233;28;20048;-86
2022/07/23 03:03:08;;;;;;;4.85;4.45;;;;;;;;;;5054026;28;20410;-86
2022/07/23 03:05:36;;;;;;;4.30;4.10;;;;;;;;;;5055435;28;20132;-85
2022/07/23 03:08:03;;;;;;;6.78;4.38;;;;;;;;;;5054929;28;20052;-86
2022/07/23 03:10:30;;;;;;;5.97;4.70;;;;;;;;;;5055154;28;20095;-86
2022/07/23 03:12:57;;;;;;;5.00;4.70;;;;;;;;;;5053809;28;20052;-85
2022/07/23 03:15:24;;;;;;;5.05;4.65;;;;;;;;;;5053910;28;20049;-86
2022/07/23 03:17:51;;;;;;;4.90;4.60;;;;;;;;;;5054793;28;20498;-86
2022/07/23 03:20:18;;;;;;;5.20;4.90;;;;;;;;;;5053707;28;20095;-85
2022/07/23 03:22:46;;;;;;;5.00;4.55;;;;;;;;;;5053465;28;20482;-85
2022/07/23 03:25:13;;;;;;;5.13;4.75;;;;;;;;;;5053803;28;20118;-86
2022/07/23 03:27:40;;;;;;;4.72;4.43;;;;;;;;;;5056832;28;20044;-85
2022/07/23 03:30:07;;;;;;;5.07;4.68;;;;;;;;;;5057028;28;20506;-85
2022/07/23 03:32:35;;;;;;;5.30;4.80;;;;;;;;;;5056967;28;20090;-85
2022/07/23 03:35:02;;;;;;;5.15;4.75;;;;;;;;;;5057045;28;20115;-85
2022/07/23 03:37:29;;;;;;;7.20;5.32;;;;;;;;;;5056692;28;20114;-86
2022/07/23 03:39:56;;;;;;;5.72;5.22;;;;;;;;;;5056758;28;20463;-85
2022/07/23 03:42:23;;;;;;;5.32;5.03;;;;;;;;;;5056817;28;20060;-85
2022/07/23 03:44:51;;;;;;;6.70;5.70;;;;;;;;;;5056775;28;20470;-85
2022/07/23 03:47:21;;;;;;;5.70;5.20;;;;;;;;;;5074411;28;20041;-86
2022/07/23 03:49:50;;;;;;;5.65;5.25;;;;;;;;;;5055439;28;20044;-86
2022/07/23 03:52:17;;;;;;;8.88;5.53;;;;;;;;;;5056654;28;20075;-86
2022/07/23 03:54:44;;;;;;;6.53;6.00;;;;;;;;;;5074314;28;20064;-86
2022/07/23 03:57:11;;;;;;;7.55;5.43;;;;;;;;;;5056497;28;20040;-86
2022/07/23 03:59:38;;;;;;;5.68;5.03;;;;;;;;;;5056251;28;20052;-86
2022/07/23 04:02:05;;;;;;;6.57;5.78;;;;;;;;;;5056436;28;20044;-86
2022/07/23 04:04:32;;;;;;;7.22;6.53;;;;;;;;;;5056152;28;20040;-85
2022/07/23 04:07:01;;;;;;;8.45;7.00;;;;;;;;;;5056414;28;20563;-85
2022/07/23 04:09:28;;;;;;;10.80;6.88;;;;;;;;;;5056456;28;20048;-86
2022/07/23 04:11:55;;;;;;;9.05;8.25;;;;;;;;;;5074050;28;20049;-85
2022/07/23 04:14:22;;;;;;;10.85;6.57;;;;;;;;;;5056293;28;20053;-85
2022/07/23 04:16:49;;;;;;;7.85;5.93;;;;;;;;;;5055837;28;20106;-85
2022/07/23 04:19:16;;;;;;;7.00;6.20;;;;;;;;;;5074140;28;20129;-85
2022/07/23 04:21:44;;;;;;;8.25;6.47;;;;;;;;;;5056050;28;20052;-85
2022/07/23 04:24:12;;;;;;;6.65;6.05;;;;;;;;;;5073644;28;20040;-85
2022/07/23 04:26:39;;;;;;;6.88;6.28;;;;;;;;;;5055631;28;20099;-85
2022/07/23 04:29:06;;;;;;;6.57;5.97;;;;;;;;;;5056265;28;20086;-85
2022/07/23 04:31:34;;;;;;;6.40;5.80;;;;;;;;;;5056125;28;20075;-85
2022/07/23 04:34:04;;;;;;;6.22;5.65;;;;;;;;;;5056480;28;20055;-85
2022/07/23 04:36:31;;;;;;;7.57;6.30;;;;;;;;;;5056000;28;20087;-85
2022/07/23 04:38:58;;;;;;;7.47;6.13;;;;;;;;;;5056197;28;20086;-85
2022/07/23 04:41:25;;;;;;;6.35;5.75;;;;;;;;;;5056043;28;20079;-85
2022/07/23 04:43:52;;;;;;;5.90;5.40;;;;;;;;;;5055790;28;20083;-85
2022/07/23 04:46:19;;;;;;;6.53;5.95;;;;;;;;;;5055892;28;20145;-84
2022/07/23 04:48:47;;;;;;;6.25;5.72;;;;;;;;;;5055726;28;20429;-85
2022/07/23 04:51:15;;;;;;;6.20;5.70;;;;;;;;;;5055972;28;20140;-85
2022/07/23 04:53:42;;;;;;;5.82;5.32;;;;;;;;;;5055949;28;20094;-84
2022/07/23 04:56:09;;;;;;;7.45;5.68;;;;;;;;;;5055948;28;20144;-85
2022/07/23 04:58:36;;;;;;;7.97;5.93;;;;;;;;;;5055510;28;20096;-85
2022/07/23 05:01:03;;;;;;;6.47;5.88;;;;;;;;;;5055431;28;20080;-85
2022/07/23 05:03:31;;;;;;;6.65;6.10;;;;;;;;;;5055516;28;20075;-84
2022/07/23 05:05:58;;;;;;;8.82;6.10;;;;;;;;;;5055632;28;20490;-85
2022/07/23 05:08:25;;;;;;;7.53;6.20;;;;;;;;;;5055809;28;20044;-85
2022/07/23 05:10:52;;;;;;;8.75;6.10;;;;;;;;;;5055574;28;20048;-83
2022/07/23 05:13:19;;;;;;;6.03;5.53;;;;;;;;;;5055376;28;20074;-85
2022/07/23 05:15:47;;;;;;;6.72;6.13;;;;;;;;;;5073071;28;20072;-85
2022/07/23 05:18:14;;;;;;;5.82;5.43;;;;;;;;;;5055316;28;20199;-85
2022/07/23 05:20:41;;;;;;;6.70;6.10;;;;;;;;;;5055323;28;20079;-85
2022/07/23 05:23:08;;;;;;;6.10;5.50;;;;;;;;;;5055164;28;20555;-85
2022/07/23 05:25:35;;;;;;;8.32;6.75;;;;;;;;;;5055067;28;20091;-84
2022/07/23 05:28:02;;;;;;;8.05;6.78;;;;;;;;;;5055550;28;20068;-83
2022/07/23 05:30:30;;;;;;;7.22;6.55;;;;;;;;;;5072756;28;20059;-85
2022/07/23 05:32:57;;;;;;;7.45;6.60;;;;;;;;;;5055146;28;20072;-84
2022/07/23 05:35:24;;;;;;;7.90;6.95;;;;;;;;;;5073084;28;20044;-84
2022/07/23 05:37:52;;;;;;;7.13;6.10;;;;;;;;;;5072776;28;20040;-85
2022/07/23 05:40:19;;;;;;;6.80;6.28;;;;;;;;;;5055078;28;20044;-85
2022/07/23 05:42:47;;;;;;;7.30;6.60;;;;;;;;;;5055090;28;20084;-86
2022/07/23 05:45:14;;;;;;;8.10;7.32;;;;;;;;;;5072781;28;20513;-85
2022/07/23 05:47:41;;;;;;;10.05;7.22;;;;;;;;;;5054979;28;20045;-85
2022/07/23 05:50:09;;;;;;;8.27;7.25;;;;;;;;;;5055154;28;20131;-85
2022/07/23 05:52:36;;;;;;;9.00;6.93;;;;;;;;;;5054824;28;20516;-85
2022/07/23 05:55:03;;;;;;;9.35;7.75;;;;;;;;;;5055137;28;20061;-85
2022/07/23 05:57:30;;;;;;;9.15;8.20;;;;;;;;;;5054897;28;20049;-84
2022/07/23 05:59:57;;;;;;;9.95;7.78;;;;;;;;;;5055277;28;20371;-85
2022/07/23 06:02:25;;;;;;;8.35;7.47;;;;;;;;;;5055630;28;20063;-86
2022/07/23 06:04:52;;;;;;;8.30;7.50;;;;;;;;;;5056073;28;20475;-85
2022/07/23 06:07:19;;;;;;;7.97;7.22;;;;;;;;;;5054832;28;20044;-85
2022/07/23 06:09:48;;;;;;;7.57;6.85;;;;;;;;;;5061216;28;20091;-85
2022/07/23 06:12:16;;;;;;;8.13;6.75;;;;;;;;;;5059118;28;20098;-85
2022/07/23 06:14:44;;;;;;;7.55;6.90;;;;;;;;;;5058768;28;20425;-86
2022/07/23 06:17:11;;;;;;;8.23;7.35;;;;;;;;;;5059413;28;20075;-85
2022/07/23 06:19:38;;;;;;;10.77;7.45;;;;;;;;;;5058909;28;20052;-85
2022/07/23 06:22:05;;;;;;;6.93;6.22;;;;;;;;;;5061022;28;20075;-85
2022/07/23 06:24:32;;;;;;;6.93;6.20;;;;;;;;;;5088362;28;20045;-85
2022/07/23 06:27:00;;;;;;;6.43;5.82;;;;;;;;;;5066332;28;20053;-86
2022/07/23 06:29:27;;;;;;;6.38;5.78;;;;;;;;;;5055334;28;20095;-84
2022/07/23 06:31:54;;;;;;;8.43;7.13;;;;;;;;;;5055096;28;20088;-85
2022/07/23 06:34:21;;;;;;;13.85;7.53;;;;;;;;;;5056109;28;20144;-85
2022/07/23 06:36:48;;;;;;;8.93;7.10;;;;;;;;;;5054738;28;20049;-85
2022/07/23 06:39:15;;;;;;;9.18;7.18;;;;;;;;;;5054991;28;20132;-85
2022/07/23 06:41:42;;;;;;;10.70;8.27;;;;;;;;;;5054680;28;20045;-84
2022/07/23 06:44:16;;;;;;;11.23;8.45;;;;;;;;;;5055146;28;20049;-85
2022/07/23 06:46:43;;;;;;;10.65;7.93;;;;;;;;;;5055038;28;20079;-85
2022/07/23 06:49:11;;;;;;;9.05;7.32;;;;;;;;;;5054646;28;20090;-85
2022/07/23 06:51:38;;;;;;;8.63;7.80;;;;;;;;;;5056379;28;20053;-83
2022/07/23 06:54:05;;;;;;;9.80;7.05;;;;;;;;;;5055304;28;20049;-83
2022/07/23 06:56:32;;;;;;;13.07;8.73;;;;;;;;;;5054565;28;20048;-82
2022/07/23 06:59:00;;;;;;;8.45;7.65;;;;;;;;;;5055166;28;20461;-83
2022/07/23 07:01:27;;;;;;;8.73;7.90;;;;;;;;;;5054803;28;20056;-83
2022/07/23 07:03:55;;;;;;;12.13;7.93;;;;;;;;;;5055926;28;20045;-82
2022/07/23 07:06:22;;;;;;;12.45;8.05;;;;;;;;;;5056132;28;20099;-83
2022/07/23 07:08:51;;;;;;;9.48;8.45;;;;;;;;;;5054548;28;20085;-83
2022/07/23 07:11:18;;;;;;;8.85;7.63;;;;;;;;;;5054695;28;20080;-82
2022/07/23 07:13:45;;;;;;;7.47;6.60;;;;;;;;;;5054918;28;20049;-83
2022/07/23 07:16:13;;;;;;;8.60;6.50;;;;;;;;;;5056091;28;20083;-83
2022/07/23 07:18:40;;;;;;;7.40;6.70;;;;;;;;;;5054912;28;20135;-84
2022/07/23 07:21:07;;;;;;;10.60;7.38;;;;;;;;;;5054619;28;20099;-83
2022/07/23 07:23:35;;;;;;;10.60;6.22;;;;;;;;;;5054587;28;20075;-84
2022/07/23 07:26:02;;;;;;;8.63;6.63;;;;;;;;;;5054601;28;20071;-84
2022/07/23 07:28:29;;;;;;;6.30;5.75;;;;;;;;;;5055529;28;20045;-83
2022/07/23 07:30:56;;;;;;;8.15;6.28;;;;;;;;;;5055303;28;20073;-83
2022/07/23 07:33:23;;;;;;;9.05;5.82;;;;;;;;;;5055788;28;20049;-83
2022/07/23 07:35:51;;;;;;;7.25;6.00;;;;;;;;;;5054354;28;20135;-80
2022/07/23 07:38:18;;;;;;;7.03;6.32;;;;;;;;;;5056629;28;20068;-82
2022/07/23 07:40:45;;;;;;;6.40;5.78;;;;;;;;;;5058030;28;20501;-83
2022/07/23 07:43:12;;;;;;;10.50;5.95;;;;;;;;;;5055118;28;20130;-83
2022/07/23 07:45:39;;;;;;;5.72;5.22;;;;;;;;;;5055285;28;20041;-85
2022/07/23 07:48:06;;;;;;;6.15;5.55;;;;;;;;;;5056334;28;20074;-84
2022/07/23 07:50:34;;;;;;;10.57;5.97;;;;;;;;;;5056514;28;20502;-84
2022/07/23 07:53:01;;;;;;;5.90;5.30;;;;;;;;;;5057018;28;20049;-84
2022/07/23 07:55:28;;;;;;;5.82;5.32;;;;;;;;;;5055061;28;20056;-85
2022/07/23 07:57:56;;;;;;;6.00;5.07;;;;;;;;;;5056897;28;20103;-84
2022/07/23 08:00:23;;;;;;;7.78;5.20;;;;;;;;;;5055397;28;20045;-84
2022/07/23 08:02:51;;;;;;;5.20;4.88;;;;;;;;;;5055065;28;20110;-83
2022/07/23 08:05:23;;;;;;;5.32;4.90;;;;;;;;;;5055668;28;20099;-84
2022/07/23 08:07:55;;;;;;;5.57;5.07;;;;;;;;;;5056355;28;20056;-83
2022/07/23 08:10:22;;;;;;;5.63;5.10;;;;;;;;;;5054683;28;20136;-82
2022/07/23 08:12:50;;;;;;;6.00;5.40;;;;;;;;;;5055179;28;20457;-83
2022/07/23 08:15:18;;;;;;;10.23;5.70;;;;;;;;;;5055264;28;20524;-83
2022/07/23 08:17:46;;;;;;;8.48;5.50;;;;;;;;;;5057084;28;20095;-84
2022/07/23 08:20:14;;;;;;;6.55;5.57;;;;;;;;;;5055808;28;20099;-84
2022/07/23 08:22:42;;;;;;;9.05;5.45;;;;;;;;;;5056468;28;20079;-83
2022/07/23 08:25:10;;;;;;;7.35;6.55;;;;;;;;;;5056720;28;20048;-83
2022/07/23 08:27:37;;;;;;;8.43;5.85;;;;;;;;;;5036247;28;20041;-82
2022/07/23 08:30:04;;;;;;;6.63;6.03;;;;;;;;;;5036537;28;20046;-83
2022/07/23 08:32:31;;;;;;;6.35;5.68;;;;;;;;;;5038574;28;20499;-84
2022/07/23 08:35:11;;;;;;;6.03;5.47;;;;;;;;;;5036474;28;20050;-84
2022/07/23 08:37:38;;;;;;;6.47;5.88;;;;;;;;;;5039471;28;20107;-84
2022/07/23 08:40:06;;;;;;;7.53;5.72;;;;;;;;;;5037891;28;20107;-84
2022/07/23 08:42:36;;;;;;;5.90;5.40;;;;;;;;;;5037976;28;20053;-84
2022/07/23 08:45:04;;;;;;;6.32;5.75;;;;;;;;;;5040030;28;20454;-84
2022/07/23 08:47:31;;;;;;;5.45;5.05;;;;;;;;;;5037779;28;20557;-84
2022/07/23 08:49:59;;;;;;;6.70;6.10;;;;;;;;;;5038200;28;20509;-83
2022/07/23 08:52:26;;;;;;;5.63;5.22;;;;;;;;;;5038976;28;20061;-84
2022/07/23 08:54:55;;;;;;;7.85;5.75;;;;;;;;;;5039484;28;20136;-84
2022/07/23 08:57:22;;;;;;;6.70;6.10;;;;;;;;;;5039172;28;20442;-85
2022/07/23 08:59:49;;;;;;;6.22;5.72;;;;;;;;;;5039378;28;20576;-85
2022/07/23 09:02:16;;;;;;;7.13;6.28;;;;;;;;;;5041144;28;20060;-84
2022/07/23 09:04:43;;;;;;;8.85;6.35;;;;;;;;;;5041210;28;20041;-84
2022/07/23 09:07:11;;;;;;;7.57;6.22;;;;;;;;;;5040017;28;20538;-84
2022/07/23 09:09:38;;;;;;;6.82;5.88;;;;;;;;;;5041090;28;20080;-84
2022/07/23 09:12:06;;;;;;;6.32;5.82;;;;;;;;;;5040780;28;20045;-84
2022/07/23 09:14:40;;;;;;;5.95;5.35;;;;;;;;;;5040227;28;20092;-83
2022/07/23 09:17:11;;;;;;;5.70;5.20;;;;;;;;;;5039957;28;20060;-84
2022/07/23 09:19:38;;;;;;;6.28;5.40;;;;;;;;;;5038479;28;20129;-83
2022/07/23 09:22:21;;;;;;;8.00;5.35;;;;;;;;;;5037926;28;20103;-84
2022/07/23 09:25:13;;;;;;;8.38;5.45;;;;;;;;;;5037035;28;20447;-85
2022/07/23 09:27:47;;;;;;;6.82;5.18;;;;;;;;;;5056763;28;20105;-83
2022/07/23 09:30:22;;;;;;;5.88;5.38;;;;;;;;;;5055806;28;20041;-81
2022/07/23 09:33:09;;;;;;;5.47;5.00;;;;;;;;;;5057152;28;20467;-84
2022/07/23 09:35:53;;;;;;;5.72;5.10;;;;;;;;;;5060444;28;20462;-85
2022/07/23 09:38:22;;;;;;;5.72;5.22;;;;;;;;;;5059631;28;20045;-84
2022/07/23 09:41:07;;;;;;;6.03;5.00;;;;;;;;;;5061458;28;20067;-85
2022/07/23 09:43:35;;;;;;;6.78;5.10;;;;;;;;;;5061405;28;20107;-83
2022/07/23 09:46:18;;;;;;;5.45;5.13;;;;;;;;;;5062106;28;20049;-82
2022/07/23 09:48:45;;;;;;;6.23;4.60;;;;;;;;;;5068366;28;20053;-84
2022/07/23 09:51:17;;;;;;;4.90;4.47;;;;;;;;;;5064021;28;20079;-84
2022/07/23 09:53:44;;;;;;;4.63;4.32;;;;;;;;;;5060708;28;20052;-83
2022/07/23 09:56:12;;;;;;;5.70;4.88;;;;;;;;;;5061027;28;20049;-85
2022/07/23 09:58:46;;;;;;;5.30;4.85;;;;;;;;;;5059578;28;20049;-85
2022/07/23 10:01:14;;;;;;;6.35;5.50;;;;;;;;;;5061496;28;20099;-85
2022/07/23 10:03:42;;;;;;;5.70;4.65;;;;;;;;;;5060481;28;20048;-84
2022/07/23 10:06:10;;;;;;;5.05;4.60;;;;;;;;;;5061610;28;20044;-82
2022/07/23 10:08:41;;;;;;;5.90;4.40;;;;;;;;;;5059783;28;20049;-83
2022/07/23 10:11:10;;;;;;;4.68;4.20;;;;;;;;;;5060017;28;20049;-84
2022/07/23 10:16:17;;;;;;;4.93;4.50;;;;;;;;;;5061963;28;20126;-85
2022/07/23 10:18:54;;;;;;;5.85;4.57;;;;;;;;;;5060446;28;20053;-82
2022/07/23 10:21:40;;;;;;;4.20;3.90;;;;;;;;;;5060160;28;20057;-85
2022/07/23 10:24:33;;;;;;;5.25;4.25;;;;;;;;;;5058255;28;20130;-86
2022/07/23 10:27:06;;;;;;;4.90;4.60;;;;;;;;;;5059606;28;20056;-83
2022/07/23 10:29:46;;;;;;;6.75;3.97;;;;;;;;;;5057696;28;20128;-82
2022/07/23 10:32:21;;;;;;;5.78;4.38;;;;;;;;;;5058575;28;20052;-85
2022/07/23 10:35:01;;;;;;;5.05;4.65;;;;;;;;;;5059146;28;20132;-85
2022/07/23 10:37:28;;;;;;;6.15;4.43;;;;;;;;;;5058416;28;20053;-84
2022/07/23 10:40:23;;;;;;;4.80;4.32;;;;;;;;;;5057881;28;20049;-81
2022/07/23 10:42:51;;;;;;;5.27;4.53;;;;;;;;;;5074369;28;20467;-81
2022/07/23 10:45:24;;;;;;;4.38;4.07;;;;;;;;;;5056991;28;20053;-86
2022/07/23 10:47:52;;;;;;;;;;;;;;;;;;5057331;28;20041;-85
2022/07/23 10:50:24;;;;;;;4.43;4.03;;;;;;;;;;5057380;28;19920;-85
2022/07/23 10:53:09;;;;;;;4.80;4.32;;;;;;;;;;5056599;28;20044;-86
2022/07/23 10:55:36;;;;;;;4.97;4.57;;;;;;;;;;5057019;28;20486;-83
2022/07/23 10:58:05;;;;;;;5.28;4.63;;;;;;;;;;5055880;28;20093;-84
2022/07/23 11:00:33;;;;;;;5.22;4.93;;;;;;;;;;5057523;28;20084;-82
2022/07/23 11:03:01;;;;;;;5.32;4.65;;;;;;;;;;5058315;28;20068;-82
2022/07/23 11:05:42;;;;;;;5.00;4.50;;;;;;;;;;5059758;28;20107;-84
2022/07/23 11:08:11;;;;;;;5.53;4.70;;;;;;;;;;5058432;28;20095;-82
2022/07/23 11:10:38;;;;;;;5.10;4.70;;;;;;;;;;5058255;28;20122;-85
2022/07/23 11:13:24;;;;;;;5.13;4.53;;;;;;;;;;5058231;28;20069;-85
2022/07/23 11:16:10;;;;;;;6.65;4.90;;;;;;;;;;5057987;28;20457;-85
2022/07/23 11:18:41;;;;;;;5.28;4.88;;;;;;;;;;5058950;28;20053;-85
2022/07/23 11:21:23;;;;;;;5.97;5.35;;;;;;;;;;5060602;28;20076;-83
2022/07/23 11:24:02;;;;;;;5.70;5.20;;;;;;;;;;5058344;28;20072;-85
2022/07/23 11:27:00;;;;;;;5.80;5.00;;;;;;;;;;5056552;28;20041;-85
2022/07/23 11:29:37;;;;;;;5.88;5.28;;;;;;;;;;5068740;28;20053;-83
2022/07/23 11:32:05;;;;;;;5.30;5.00;;;;;;;;;;5058212;28;20049;-83
2022/07/23 11:34:39;;;;;;;5.07;4.68;;;;;;;;;;5058911;28;20045;-83
2022/07/23 11:37:08;;;;;;;5.38;4.88;;;;;;;;;;5058799;28;20053;-83
2022/07/23 11:39:36;;;;;;;4.72;4.43;;;;;;;;;;5056963;28;20072;-83
2022/07/23 11:42:06;;;;;;;5.78;5.05;;;;;;;;;;5058738;28;20055;-84
2022/07/23 11:44:38;;;;;;;7.93;4.88;;;;;;;;;;5057423;28;20061;-84
2022/07/23 11:47:07;;;;;;;5.30;4.80;;;;;;;;;;5057762;28;20064;-83
2022/07/23 11:49:35;;;;;;;5.60;4.50;;;;;;;;;;5056889;28;20495;-82
2022/07/23 11:52:06;;;;;;;5.80;5.10;;;;;;;;;;5057840;28;20100;-83
2022/07/23 11:54:34;;;;;;;5.43;4.50;;;;;;;;;;5057054;28;20494;-83
2022/07/23 11:57:06;;;;;;;5.72;5.03;;;;;;;;;;5058099;28;20045;-85
2022/07/23 11:59:33;;;;;;;5.03;4.53;;;;;;;;;;5058151;28;20045;-85
2022/07/23 12:02:02;;;;;;;5.15;4.60;;;;;;;;;;5056172;28;20132;-82
2022/07/23 12:04:46;;;;;;;4.78;4.47;;;;;;;;;;5054407;28;20053;-82
2022/07/23 12:07:26;;;;;;;5.07;4.68;;;;;;;;;;5054487;28;20557;-82
2022/07/23 12:09:54;;;;;;;4.75;4.35;;;;;;;;;;5052675;28;20118;-82
2022/07/23 12:12:21;;;;;;;5.03;4.60;;;;;;;;;;5053521;28;20136;-86
2022/07/23 12:14:57;;;;;;;5.75;5.15;;;;;;;;;;5053041;28;20048;-84
2022/07/23 12:17:29;;;;;;;6.40;5.15;;;;;;;;;;5052947;28;20053;-82
2022/07/23 12:20:01;;;;;;;6.70;5.17;;;;;;;;;;5053295;28;20533;-83
2022/07/23 12:22:34;;;;;;;7.30;6.05;;;;;;;;;;5053153;28;20106;-84
2022/07/23 12:25:04;;;;;;;6.00;5.50;;;;;;;;;;5054064;28;20084;-82
2022/07/23 12:27:31;;;;;;;6.60;5.68;;;;;;;;;;5053060;28;20454;-83
2022/07/23 12:29:58;;;;;;;6.85;6.25;;;;;;;;;;5053255;28;20136;-81
2022/07/23 12:32:29;;;;;;;7.20;6.28;;;;;;;;;;5052906;28;20045;-80
2022/07/23 12:35:07;;;;;;;6.88;6.28;;;;;;;;;;5052882;28;20083;-84
2022/07/23 12:37:38;;;;;;;6.70;6.10;;;;;;;;;;5058048;28;20095;-84
2022/07/23 12:40:24;;;;;;;8.55;6.78;;;;;;;;;;5057242;28;20045;-83
2022/07/23 12:42:55;;;;;;;7.65;6.95;;;;;;;;;;5056062;28;20069;-82
2022/07/23 12:45:26;;;;;;;6.72;6.07;;;;;;;;;;5058649;28;20064;-84
2022/07/23 12:47:55;;;;;;;7.55;6.95;;;;;;;;;;5059447;28;20132;-83
2022/07/23 12:50:41;;;;;;;8.02;7.18;;;;;;;;;;5057678;28;20045;-84
2022/07/23 12:53:09;;;;;;;8.82;7.35;;;;;;;;;;5058261;28;20049;-86
2022/07/23 12:55:45;;;;;;;7.45;6.75;;;;;;;;;;5056447;28;20059;-85
2022/07/23 12:58:44;;;;;;;8.52;6.30;;;;;;;;;;5055463;28;20045;-86
2022/07/23 13:01:24;;;;;;;7.60;6.90;;;;;;;;;;5057993;28;20049;-84
2022/07/23 13:04:01;;;;;;;6.43;5.93;;;;;;;;;;5054434;28;20049;-86
2022/07/23 13:06:35;;;;;;;7.50;6.55;;;;;;;;;;5054487;28;20045;-83
2022/07/23 13:09:04;;;;;;;6.80;6.20;;;;;;;;;;5059675;28;20048;-84
2022/07/23 13:11:31;;;;;;;6.60;6.00;;;;;;;;;;5057244;28;20045;-84
2022/07/23 13:14:00;;;;;;;7.70;5.53;;;;;;;;;;5060072;28;20049;-83
2022/07/23 13:16:28;;;;;;;6.82;5.80;;;;;;;;;;5057897;28;20059;-83
2022/07/23 13:18:57;;;;;;;5.85;5.30;;;;;;;;;;5060581;28;20057;-82
2022/07/23 13:21:45;;;;;;;5.25;4.95;;;;;;;;;;5056367;28;20099;-82
2022/07/23 13:24:13;;;;;;;5.30;5.00;;;;;;;;;;5056797;28;20049;-83
2022/07/23 13:26:41;;;;;;;6.25;5.70;;;;;;;;;;5055842;28;20053;-84
2022/07/23 13:29:08;;;;;;;5.63;5.13;;;;;;;;;;5057204;28;20083;-84
2022/07/23 13:31:37;;;;;;;5.43;5.03;;;;;;;;;;5060298;28;20091;-86
2022/07/23 13:34:07;;;;;;;6.18;5.57;;;;;;;;;;5064815;28;20057;-84
2022/07/23 13:36:37;;;;;;;6.28;5.45;;;;;;;;;;5065473;28;20126;-84
2022/07/23 13:39:05;;;;;;;5.15;4.70;;;;;;;;;;5063140;28;20060;-85
2022/07/23 13:41:36;;;;;;;6.20;5.05;;;;;;;;;;5065473;28;20053;-86
2022/07/23 13:44:15;;;;;;;5.70;4.90;;;;;;;;;;5057248;28;20112;-88
2022/07/23 13:46:47;;;;;;;4.85;4.50;;;;;;;;;;5055862;28;20041;-86
2022/07/23 13:49:15;;;;;;;4.72;4.43;;;;;;;;;;5055951;28;20045;-86
2022/07/23 13:51:46;;;;;;;5.40;4.75;;;;;;;;;;5057471;28;20056;-86
2022/07/23 13:54:15;;;;;;;6.63;5.10;;;;;;;;;;5057844;28;20045;-83
2022/07/23 13:56:46;;;;;;;5.50;5.03;;;;;;;;;;5067502;28;20033;-83
2022/07/23 13:59:19;;;;;;;5.40;4.88;;;;;;;;;;5068360;28;20057;-84
2022/07/23 14:01:52;;;;;;;5.68;4.68;;;;;;;;;;5062197;28;20053;-85
2022/07/23 14:04:40;;;;;;;5.80;4.72;;;;;;;;;;5059610;28;20541;-85
2022/07/23 14:07:10;;;;;;;4.60;4.30;;;;;;;;;;5059585;28;20049;-85
2022/07/23 14:09:38;;;;;;;4.88;4.57;;;;;;;;;;5063478;28;20059;-86
2022/07/23 14:12:07;;;;;;;5.93;4.50;;;;;;;;;;5060427;28;20060;-86
2022/07/23 14:14:37;;;;;;;6.13;4.50;;;;;;;;;;5055934;28;20057;-86
2022/07/23 14:17:06;;;;;;;4.97;4.55;;;;;;;;;;5057259;28;20056;-85
2022/07/23 14:19:51;;;;;;;5.03;4.60;;;;;;;;;;5058965;28;20065;-86
2022/07/23 14:22:19;;;;;;;5.93;5.15;;;;;;;;;;5064897;28;20087;-86
2022/07/23 14:24:48;;;;;;;5.15;4.72;;;;;;;;;;5058922;28;20098;-85
2022/07/23 14:27:18;;;;;;;5.60;5.10;;;;;;;;;;5062840;28;20049;-85
2022/07/23 14:29:48;;;;;;;5.60;4.82;;;;;;;;;;5054493;28;20045;-81
2022/07/23 14:32:15;;;;;;;5.40;5.00;;;;;;;;;;5054829;28;20048;-82
2022/07/23 14:34:43;;;;;;;5.00;4.70;;;;;;;;;;5058023;28;20477;-83
2022/07/23 14:37:14;;;;;;;5.03;4.63;;;;;;;;;;5059316;28;20414;-84
2022/07/23 14:39:41;;;;;;;5.00;4.60;;;;;;;;;;5059232;28;20628;-83
2022/07/23 14:42:12;;;;;;;5.30;4.80;;;;;;;;;;5057270;28;20076;-83
2022/07/23 14:44:40;;;;;;;5.57;5.18;;;;;;;;;;5059953;28;20056;-85
2022/07/23 14:47:07;;;;;;;5.05;4.68;;;;;;;;;;5057865;28;20256;-84
2022/07/23 14:49:36;;;;;;;5.38;4.68;;;;;;;;;;5059497;28;20049;-83
2022/07/23 14:52:03;;;;;;;4.68;4.38;;;;;;;;;;5058188;28;20073;-86
2022/07/23 14:54:32;;;;;;;6.85;5.00;;;;;;;;;;5059930;28;20421;-84
2022/07/23 14:57:00;;;;;;;7.68;5.72;;;;;;;;;;5056568;28;20074;-85
2022/07/23 14:59:27;;;;;;;6.18;4.65;;;;;;;;;;5056768;28;20053;-84